Abanilla, Spain
Current Conditions -  °F | °C
As of 7:00 PM on Friday 28 Nov 2014 (Local Time) from LERI Reporting Station
Scattered Clouds Scattered Clouds  
Wind Chill: 59°   Ceiling: Unl
Heat Index: 59°   Visibility: 6mi
Dew Point: 54°   Wind: 3mph
Humidity: 82%   Direction: 90°E
Pressure: 29.23"   Gusts: NA
Location:  38.21°N, 1.04°W
Report Text: LERI 281800Z 09003KT 9999 FEW030 SCT040 15/12 Q0990 NOSIG
Loading
Personal Weather Stations






























Interactive Weather Map New forecast layout! Learn more

10-Day Weather Forecast

Advertisements
Track Severe Weather on mobile